Time;durP1;ratioP1;P1;durP2;ratioP2;P2;SDS_P1;SDS_P2;PMS_P1;PMS_P2;Temp;Humidity;BMP_temperature;BMP_pressure;BME280_temperature;BME280_humidity;BME280_pressure;Samples;Min_cycle;Max_cycle;Signal;HPM_P1;HPM_P2
2023/03/21 00:02:30;;;;;;;;;;;;;;;11.18;100.00;100366.81;5589344;31;35043;-68
2023/03/21 00:05:44;;;;;;;;;;;;;;;11.08;100.00;100363.53;5563777;31;33997;-68
2023/03/21 00:08:52;;;;;;;;;;;;;;;11.20;100.00;100362.16;5589432;31;34510;-68
2023/03/21 00:12:00;;;;;;;;;;;;;;;11.24;100.00;100358.16;5575894;31;35054;-67
2023/03/21 00:15:09;;;;;;;;;;;;;;;11.29;100.00;100359.28;5589248;31;35183;-68
2023/03/21 00:18:16;;;;;;;;;;;;;;;11.16;100.00;100353.72;5589276;31;34600;-68
2023/03/21 00:21:27;;;;;;;;;;;;;;;11.08;100.00;100356.41;5589189;31;34576;-68
2023/03/21 00:24:53;;;;;;;;;;;;;;;10.93;100.00;100347.50;5578162;31;34627;-67
2023/03/21 00:28:00;;;;;;;;;;;;;;;10.83;100.00;100355.66;5575286;31;33166;-68
2023/03/21 00:31:13;;;;;;;;;;;;;;;10.83;100.00;100349.50;5589198;31;35006;-68
2023/03/21 00:34:20;;;;;;;;;;;;;;;10.73;100.00;100346.22;5589155;31;35098;-68
2023/03/21 00:37:48;;;;;;;;;;;;;;;10.63;100.00;100335.78;5589190;31;34477;-67
2023/03/21 00:40:56;;;;;;;;;;;;;;;10.64;100.00;100333.97;5575739;31;34653;-68
2023/03/21 00:44:14;;;;;;;;;;;;;;;10.61;100.00;100332.47;5588878;31;35169;-67
2023/03/21 00:47:22;;;;;;;;;;;;;;;10.52;100.00;100338.78;5589081;31;34660;-67
2023/03/21 00:50:31;;;;;;;;;;;;;;;10.45;100.00;100337.81;5588802;31;33659;-67
2023/03/21 00:53:39;;;;;;;;;;;;;;;10.39;100.00;100335.84;5588784;31;34559;-67
2023/03/21 00:56:44;;;;;;;;;;;;;;;10.32;100.00;100325.06;5574854;31;34125;-68
2023/03/21 00:59:50;;;;;;;;;;;;;;;10.26;100.00;100332.88;5588700;31;34952;-68
2023/03/21 01:03:04;;;;;;;;;;;;;;;10.21;100.00;100329.88;5575561;31;34380;-68
2023/03/21 01:06:28;;;;;;;;;;;;;;;10.19;100.00;100329.22;5588587;31;34061;-68
2023/03/21 01:09:37;;;;;;;;;;;;;;;10.21;100.00;100322.75;5588449;31;35197;-68
2023/03/21 01:12:44;;;;;;;;;;;;;;;10.25;100.00;100324.09;5588417;31;35062;-68
2023/03/21 01:15:54;;;;;;;;;;;;;;;10.24;100.00;100311.81;5588449;31;35320;-68
2023/03/21 01:19:00;;;;;;;;;;;;;;;10.29;100.00;100321.91;5588294;31;35166;-68
2023/03/21 01:22:16;;;;;;;;;;;;;;;10.30;100.00;100324.41;5588345;31;34554;-68
2023/03/21 01:25:25;;;;;;;;;;;;;;;10.23;100.00;100322.56;5588577;31;34709;-68
2023/03/21 01:28:31;;;;;;;;;;;;;;;10.20;100.00;100326.41;5588013;31;34605;-68
2023/03/21 01:31:39;;;;;;;;;;;;;;;10.15;100.00;100323.41;5574946;31;34482;-68
2023/03/21 01:34:48;;;;;;;;;;;;;;;10.10;100.00;100308.97;5576352;31;34574;-68
2023/03/21 01:37:57;;;;;;;;;;;;;;;10.06;100.00;100318.25;5578164;31;34610;-68
2023/03/21 01:41:06;;;;;;;;;;;;;;;10.16;100.00;100319.78;5590858;31;34580;-68
2023/03/21 01:44:23;;;;;;;;;;;;;;;10.10;100.00;100320.41;5578534;31;35192;-68
2023/03/21 01:47:30;;;;;;;;;;;;;;;10.10;100.00;100319.59;5590654;31;34445;-68
2023/03/21 01:50:40;;;;;;;;;;;;;;;10.02;100.00;100318.56;5590619;31;34577;-68
2023/03/21 01:53:47;;;;;;;;;;;;;;;10.02;100.00;100318.56;5577333;31;34598;-68
2023/03/21 01:56:57;;;;;;;;;;;;;;;10.02;100.00;100313.28;5577399;31;34542;-68
2023/03/21 02:00:11;;;;;;;;;;;;;;;10.11;100.00;100321.25;5590589;31;34562;-68
2023/03/21 02:03:22;;;;;;;;;;;;;;;10.21;100.00;100320.12;5590580;31;34082;-68
2023/03/21 02:06:45;;;;;;;;;;;;;;;10.27;100.00;100313.28;5590731;31;34983;-68
2023/03/21 02:09:53;;;;;;;;;;;;;;;10.32;100.00;100319.75;5590437;31;34513;-67
2023/03/21 02:13:09;;;;;;;;;;;;;;;10.29;100.00;100316.62;5576931;31;35219;-67
2023/03/21 02:16:27;;;;;;;;;;;;;;;10.24;100.00;100309.16;5557597;32;35108;-67
2023/03/21 02:19:40;;;;;;;;;;;;;;;10.16;100.00;100322.44;5570772;32;34552;-67
2023/03/21 02:23:06;;;;;;;;;;;;;;;10.14;100.00;100321.72;5570707;32;34390;-66
2023/03/21 02:26:18;;;;;;;;;;;;;;;10.06;100.00;100313.78;5570663;32;34652;-66
2023/03/21 02:29:25;;;;;;;;;;;;;;;10.07;100.00;100315.41;5570640;32;34646;-67
2023/03/21 02:32:56;;;;;;;;;;;;;;;10.19;100.00;100318.59;5557416;32;34635;-68
2023/03/21 02:36:25;;;;;;;;;;;;;;;10.15;100.00;100311.97;5570953;32;34662;-66
2023/03/21 02:39:37;;;;;;;;;;;;;;;10.16;100.00;100306.53;5570551;32;34481;-66
2023/03/21 02:43:02;;;;;;;;;;;;;;;10.23;100.00;100314.63;5570580;32;33202;-66
2023/03/21 02:46:33;;;;;;;;;;;;;;;10.19;100.00;100316.78;5570382;32;34468;-66
2023/03/21 02:49:59;;;;;;;;;;;;;;;10.25;100.00;100320.59;5570618;32;35111;-66
2023/03/21 02:53:12;;;;;;;;;;;;;;;10.21;100.00;100321.94;5557521;32;34314;-67
2023/03/21 02:56:22;;;;;;;;;;;;;;;10.17;100.00;100321.41;5570547;32;35182;-67
2023/03/21 02:59:31;;;;;;;;;;;;;;;10.08;100.00;100330.34;5557222;32;35091;-68
2023/03/21 03:02:49;;;;;;;;;;;;;;;10.08;100.00;100324.19;5570334;32;33129;-67
2023/03/21 03:06:16;;;;;;;;;;;;;;;10.02;100.00;100321.22;5558588;32;35191;-68
2023/03/21 03:09:30;;;;;;;;;;;;;;;9.99;100.00;100313.62;5556982;32;34587;-66
2023/03/21 03:12:47;;;;;;;;;;;;;;;9.91;100.00;100324.22;5557645;32;35088;-68
2023/03/21 03:16:00;;;;;;;;;;;;;;;9.86;100.00;100317.75;5587920;31;34470;-67
2023/03/21 03:19:11;;;;;;;;;;;;;;;9.85;100.00;100319.56;5589826;31;35066;-68
2023/03/21 03:22:24;;;;;;;;;;;;;;;9.75;100.00;100318.91;5590023;31;35156;-68
2023/03/21 03:25:39;;;;;;;;;;;;;;;9.78;100.00;100318.56;5576618;31;35154;-67
2023/03/21 03:28:53;;;;;;;;;;;;;;;9.77;100.00;100310.78;5589770;31;34546;-65
2023/03/21 03:32:04;;;;;;;;;;;;;;;9.83;100.00;100320.72;5576563;31;34898;-67
2023/03/21 03:35:14;;;;;;;;;;;;;;;9.77;100.00;100324.87;5589516;31;34495;-68
2023/03/21 03:38:22;;;;;;;;;;;;;;;9.80;100.00;100324.53;5589642;31;34672;-68
2023/03/21 03:41:29;;;;;;;;;;;;;;;9.82;100.00;100321.72;5589837;31;34504;-68
2023/03/21 03:44:59;;;;;;;;;;;;;;;9.90;100.00;100316.44;5589781;31;34964;-67
2023/03/21 03:48:21;;;;;;;;;;;;;;;9.90;100.00;100319.06;5576589;31;34295;-68
2023/03/21 03:51:38;;;;;;;;;;;;;;;9.92;100.00;100317.09;5589578;31;35128;-67
2023/03/21 03:54:46;;;;;;;;;;;;;;;9.80;100.00;100319.22;5589610;31;35140;-67
2023/03/21 03:57:56;;;;;;;;;;;;;;;9.72;100.00;100319.22;5588776;31;35142;-68
2023/03/21 04:01:07;;;;;;;;;;;;;;;9.70;100.00;100315.06;5576442;31;35143;-68
2023/03/21 04:04:16;;;;;;;;;;;;;;;9.69;100.00;100322.19;5576239;31;35107;-67
2023/03/21 04:07:24;;;;;;;;;;;;;;;9.74;100.00;100317.22;5589408;31;35148;-67
2023/03/21 04:10:35;;;;;;;;;;;;;;;9.75;100.00;100321.53;5589123;31;35134;-67
2023/03/21 04:13:44;;;;;;;;;;;;;;;9.73;100.00;100315.56;5589082;31;35190;-68
2023/03/21 04:16:56;;;;;;;;;;;;;;;9.79;100.00;100322.88;5589350;31;34668;-68
2023/03/21 04:20:05;;;;;;;;;;;;;;;9.69;100.00;100319.53;5589329;31;34901;-67
2023/03/21 04:23:25;;;;;;;;;;;;;;;9.63;100.00;100322.88;5589397;31;34514;-68
2023/03/21 04:26:32;;;;;;;;;;;;;;;9.76;100.00;100325.84;5589336;31;35193;-68
2023/03/21 04:29:44;;;;;;;;;;;;;;;9.67;100.00;100324.19;5576557;31;35191;-68
2023/03/21 04:32:55;;;;;;;;;;;;;;;9.70;100.00;100320.38;5575817;31;34512;-67
2023/03/21 04:36:08;;;;;;;;;;;;;;;9.62;100.00;100317.72;5589029;31;35111;-67
2023/03/21 04:39:16;;;;;;;;;;;;;;;9.65;100.00;100320.03;5576265;31;34236;-68
2023/03/21 04:42:25;;;;;;;;;;;;;;;9.74;100.00;100324.34;5576002;31;35792;-67
2023/03/21 04:45:34;;;;;;;;;;;;;;;9.62;100.00;100315.91;5589010;31;34919;-69
2023/03/21 04:48:42;;;;;;;;;;;;;;;9.63;100.00;100317.56;5588886;31;34405;-69
2023/03/21 04:51:47;;;;;;;;;;;;;;;9.40;100.00;100319.97;5588796;31;35052;-69
2023/03/21 04:54:56;;;;;;;;;;;;;;;9.21;100.00;100322.91;5588833;31;35162;-69
2023/03/21 04:58:04;;;;;;;;;;;;;;;9.18;100.00;100325.06;5575593;31;34400;-69
2023/03/21 05:01:13;;;;;;;;;;;;;;;9.11;100.00;100320.38;5588882;31;34622;-69
2023/03/21 05:04:20;;;;;;;;;;;;;;;9.03;100.00;100319.53;5588825;31;33954;-70
2023/03/21 05:07:27;;;;;;;;;;;;;;;9.05;100.00;100328.97;5575099;31;34669;-70
2023/03/21 05:10:36;;;;;;;;;;;;;;;9.20;100.00;100331.03;5577177;31;34470;-69
2023/03/21 05:13:45;;;;;;;;;;;;;;;9.23;100.00;100328.87;5577909;31;34534;-69
2023/03/21 05:16:57;;;;;;;;;;;;;;;9.23;100.00;100326.22;5577845;31;35291;-69
2023/03/21 05:20:08;;;;;;;;;;;;;;;9.44;100.00;100331.09;5577101;31;33029;-68
2023/03/21 05:23:17;;;;;;;;;;;;;;;9.69;100.00;100329.31;5590896;31;34503;-69
2023/03/21 05:26:25;;;;;;;;;;;;;;;9.80;100.00;100329.84;5590914;31;34817;-69
2023/03/21 05:29:33;;;;;;;;;;;;;;;10.01;100.00;100332.00;5590792;31;34942;-68
2023/03/21 05:32:41;;;;;;;;;;;;;;;10.14;100.00;100329.69;5590746;31;34590;-68
2023/03/21 05:35:49;;;;;;;;;;;;;;;10.22;100.00;100339.47;5590762;31;35195;-69
2023/03/21 05:38:57;;;;;;;;;;;;;;;10.16;100.00;100346.28;5590679;31;32911;-68
2023/03/21 05:42:05;;;;;;;;;;;;;;;10.27;100.00;100345.09;5590799;31;34141;-68
2023/03/21 05:45:14;;;;;;;;;;;;;;;10.41;100.00;100344.44;5576977;31;32913;-69
2023/03/21 05:48:19;;;;;;;;;;;;;;;10.45;100.00;100353.72;5590545;31;35182;-68
2023/03/21 05:51:26;;;;;;;;;;;;;;;10.53;100.00;100355.53;5576452;31;34353;-68
2023/03/21 05:54:31;;;;;;;;;;;;;;;10.53;100.00;100359.03;5576826;31;34031;-69
2023/03/21 05:57:39;;;;;;;;;;;;;;;10.43;100.00;100358.38;5590460;31;35088;-69
2023/03/21 06:00:45;;;;;;;;;;;;;;;10.50;100.00;100356.72;5590255;31;34447;-69
2023/03/21 06:03:50;;;;;;;;;;;;;;;10.35;100.00;100356.56;5577055;31;35139;-67
2023/03/21 06:06:56;;;;;;;;;;;;;;;10.43;100.00;100363.66;5576785;31;34426;-69
2023/03/21 06:10:01;;;;;;;;;;;;;;;10.55;100.00;100359.69;5576816;31;35783;-68
2023/03/21 06:13:07;;;;;;;;;;;;;;;10.52;100.00;100362.66;5563455;31;33839;-68
2023/03/21 06:16:12;;;;;;;;;;;;;;;10.58;100.00;100367.31;5570556;32;34350;-67
2023/03/21 06:19:16;;;;;;;;;;;;;;;10.60;100.00;100361.84;5556281;32;35131;-68
2023/03/21 06:22:21;;;;;;;;;;;;;;;10.70;100.00;100349.19;5557195;32;35061;-68
2023/03/21 06:25:25;;;;;;;;;;;;;;;10.90;100.00;100353.97;5570366;32;34555;-68
2023/03/21 06:28:29;;;;;;;;;;;;;;;10.89;100.00;100359.47;5543908;32;33592;-68
2023/03/21 06:31:37;;;;;;;;;;;;;;;10.98;100.00;100368.22;5556648;32;33460;-68
2023/03/21 06:34:43;;;;;;;;;;;;;;;11.00;100.00;100361.72;5557057;32;34711;-68
2023/03/21 06:37:48;;;;;;;;;;;;;;;11.07;100.00;100367.19;5570260;32;34442;-68
2023/03/21 06:40:52;;;;;;;;;;;;;;;11.24;100.00;100360.81;5570286;32;34589;-68
2023/03/21 06:43:58;;;;;;;;;;;;;;;11.42;100.00;100358.75;5557167;32;35067;-69
2023/03/21 06:47:02;;;;;;;;;;;;;;;11.85;100.00;100353.88;5554401;32;34744;-68
2023/03/21 06:50:09;;;;;;;;;;;;;;;11.80;100.00;100357.06;5563842;32;34729;-68
2023/03/21 06:53:14;;;;;;;;;;;;;;;11.79;100.00;100359.88;5556722;32;34613;-68
2023/03/21 06:56:21;;;;;;;;;;;;;;;12.19;97.60;100363.09;5570457;32;34312;-70
2023/03/21 06:59:27;;;;;;;;;;;;;;;12.67;94.53;100362.84;5570178;32;34762;-68
2023/03/21 07:02:37;;;;;;;;;;;;;;;13.34;88.47;100374.25;5570077;32;34847;-68
2023/03/21 07:05:43;;;;;;;;;;;;;;;13.56;85.12;100365.28;5570388;32;34550;-68
2023/03/21 07:08:50;;;;;;;;;;;;;;;13.75;82.84;100382.53;5544104;32;34152;-68
2023/03/21 07:11:54;;;;;;;;;;;;;;;13.13;87.03;100380.31;5570099;32;35143;-67
2023/03/21 07:14:59;;;;;;;;;;;;;;;12.80;89.21;100377.16;5567569;31;34495;-68
2023/03/21 07:18:04;;;;;;;;;;;;;;;12.54;92.11;100377.56;5576336;31;34875;-68
2023/03/21 07:21:08;;;;;;;;;;;;;;;12.25;93.40;100376.69;5576176;31;34096;-69
2023/03/21 07:24:16;;;;;;;;;;;;;;;12.14;95.03;100377.94;5589792;31;34490;-68
2023/03/21 07:27:20;;;;;;;;;;;;;;;12.36;93.32;100377.06;5576140;31;34587;-68
2023/03/21 07:30:25;;;;;;;;;;;;;;;13.14;87.46;100387.31;5562479;31;34510;-67
2023/03/21 07:33:29;;;;;;;;;;;;;;;14.87;75.13;100376.37;5588893;31;34579;-68
2023/03/21 07:36:35;;;;;;;;;;;;;;;15.53;69.31;100376.78;5576055;31;35203;-68
2023/03/21 07:39:39;;;;;;;;;;;;;;;15.25;70.70;100382.13;5589704;31;34037;-68
2023/03/21 07:42:47;;;;;;;;;;;;;;;16.53;63.34;100374.88;5589484;31;35309;-68
2023/03/21 07:45:56;;;;;;;;;;;;;;;17.04;61.34;100376.91;5575993;31;35159;-69
2023/03/21 07:49:01;;;;;;;;;;;;;;;17.01;60.70;100382.69;5589273;31;34681;-70
2023/03/21 07:52:06;;;;;;;;;;;;;;;17.40;59.29;100376.41;5576022;31;34456;-69
2023/03/21 07:55:12;;;;;;;;;;;;;;;19.17;52.77;100379.69;5574939;31;34598;-69
2023/03/21 07:58:17;;;;;;;;;;;;;;;18.33;54.15;100374.03;5575988;31;34581;-70
2023/03/21 08:01:22;;;;;;;;;;;;;;;18.43;54.06;100374.38;5589773;31;34915;-69
2023/03/21 08:04:26;;;;;;;;;;;;;;;18.46;53.24;100373.94;5575556;31;34515;-69
2023/03/21 08:07:31;;;;;;;;;;;;;;;18.56;53.19;100375.13;5575687;31;34234;-69
2023/03/21 08:10:37;;;;;;;;;;;;;;;18.94;51.90;100374.97;5576013;31;34028;-69
2023/03/21 08:13:41;;;;;;;;;;;;;;;19.18;50.88;100375.13;5575204;31;34529;-70
2023/03/21 08:16:46;;;;;;;;;;;;;;;20.05;48.04;100374.66;5589368;31;34561;-70
2023/03/21 08:19:50;;;;;;;;;;;;;;;19.62;48.29;100374.00;5575690;31;34483;-69
2023/03/21 08:22:55;;;;;;;;;;;;;;;20.08;46.51;100374.22;5589267;31;34421;-70
2023/03/21 08:26:00;;;;;;;;;;;;;;;19.65;47.19;100374.41;5562456;31;33538;-71
2023/03/21 08:29:03;;;;;;;;;;;;;;;20.53;44.78;100373.72;5561936;31;33605;-70
2023/03/21 08:32:08;;;;;;;;;;;;;;;21.87;41.69;100381.53;5588895;31;34973;-71
2023/03/21 08:35:14;;;;;;;;;;;;;;;20.39;44.27;100375.81;5588665;31;34300;-70
2023/03/21 08:38:20;;;;;;;;;;;;;;;21.04;43.12;100365.75;5589123;31;34523;-70
2023/03/21 08:41:25;;;;;;;;;;;;;;;22.02;40.76;100375.63;5575817;31;35024;-71
2023/03/21 08:44:29;;;;;;;;;;;;;;;21.79;41.23;100367.56;5561724;31;34092;-70
2023/03/21 08:47:34;;;;;;;;;;;;;;;21.95;40.38;100375.75;5575263;31;34619;-70
2023/03/21 08:50:38;;;;;;;;;;;;;;;21.66;40.48;100376.78;5585983;31;35857;-69
2023/03/21 08:53:50;;;;;;;;;;;;;;;21.50;40.93;100375.66;5587165;31;34586;-70
2023/03/21 08:56:58;;;;;;;;;;;;;;;21.16;41.17;100380.06;5575380;31;34578;-70
2023/03/21 09:00:12;;;;;;;;;;;;;;;20.41;42.47;100375.59;5575096;31;33837;-70
2023/03/21 09:03:21;;;;;;;;;;;;;;;19.36;44.62;100370.59;5588928;31;34720;-69
2023/03/21 09:06:26;;;;;;;;;;;;;;;17.74;49.29;100362.66;5588532;31;34568;-69
2023/03/21 09:09:31;;;;;;;;;;;;;;;17.39;50.02;100364.84;5575138;31;34435;-69
2023/03/21 09:12:38;;;;;;;;;;;;;;;17.01;51.86;100361.25;5574321;31;33898;-69
2023/03/21 09:15:42;;;;;;;;;;;;;;;16.94;50.83;100368.50;5574418;31;34501;-69
2023/03/21 09:18:49;;;;;;;;;;;;;;;16.13;54.02;100362.50;5588120;31;34509;-69
2023/03/21 09:21:54;;;;;;;;;;;;;;;15.82;54.57;100357.72;5574639;31;35164;-69
2023/03/21 09:25:07;;;;;;;;;;;;;;;16.00;53.09;100360.62;5574558;31;35229;-68
2023/03/21 09:28:13;;;;;;;;;;;;;;;15.60;54.34;100362.37;5574700;31;35051;-69
2023/03/21 09:31:21;;;;;;;;;;;;;;;15.59;53.96;100354.56;5588200;31;34505;-70
2023/03/21 09:34:26;;;;;;;;;;;;;;;15.67;54.47;100364.25;5561119;31;33510;-70
2023/03/21 09:37:37;;;;;;;;;;;;;;;15.64;54.30;100357.44;5588087;31;35170;-69
2023/03/21 09:40:56;;;;;;;;;;;;;;;15.68;54.86;100371.28;5574327;31;34526;-68
2023/03/21 09:44:18;;;;;;;;;;;;;;;15.69;54.92;100364.88;5574146;31;34426;-68
2023/03/21 09:47:27;;;;;;;;;;;;;;;15.55;55.74;100369.34;5561053;31;33462;-70
2023/03/21 09:50:37;;;;;;;;;;;;;;;15.56;55.23;100361.12;5574125;31;33422;-69
2023/03/21 09:53:47;;;;;;;;;;;;;;;15.38;56.14;100358.16;5561138;31;33174;-69
2023/03/21 09:56:54;;;;;;;;;;;;;;;15.41;56.44;100372.97;5590483;31;34415;-69
2023/03/21 10:00:07;;;;;;;;;;;;;;;15.35;57.40;100358.53;5590533;31;34572;-68
2023/03/21 10:03:22;;;;;;;;;;;;;;;15.18;58.24;100359.91;5565096;31;35179;-68
2023/03/21 10:06:29;;;;;;;;;;;;;;;15.25;58.57;100366.09;5576612;31;34539;-69
2023/03/21 10:09:33;;;;;;;;;;;;;;;15.46;58.48;100357.97;5576771;31;34580;-68
2023/03/21 10:12:42;;;;;;;;;;;;;;;15.29;58.43;100361.22;5564103;31;34346;-69
2023/03/21 10:15:47;;;;;;;;;;;;;;;15.38;58.00;100355.50;5576258;31;34557;-69
2023/03/21 10:18:53;;;;;;;;;;;;;;;15.37;58.86;100358.34;5589937;31;34725;-69
2023/03/21 10:21:58;;;;;;;;;;;;;;;15.51;55.79;100360.91;5575945;31;32970;-69
2023/03/21 10:25:07;;;;;;;;;;;;;;;15.56;55.32;100354.97;5589914;31;35216;-69
2023/03/21 10:28:17;;;;;;;;;;;;;;;15.81;55.33;100348.06;5563116;31;33513;-70
2023/03/21 10:31:27;;;;;;;;;;;;;;;15.93;53.49;100357.12;5563083;31;33386;-68
2023/03/21 10:34:31;;;;;;;;;;;;;;;15.91;53.15;100344.97;5575854;31;35647;-69
2023/03/21 10:37:37;;;;;;;;;;;;;;;15.93;52.92;100346.41;5576509;31;35118;-70
2023/03/21 10:40:41;;;;;;;;;;;;;;;16.32;52.17;100347.47;5590048;31;35258;-69
2023/03/21 10:43:50;;;;;;;;;;;;;;;16.60;51.25;100340.09;5563195;31;33886;-70
2023/03/21 10:47:02;;;;;;;;;;;;;;;16.64;50.14;100338.66;5590090;31;35212;-69
2023/03/21 10:50:11;;;;;;;;;;;;;;;16.78;50.08;100336.78;5589994;31;34643;-71
2023/03/21 10:53:19;;;;;;;;;;;;;;;16.97;50.05;100338.59;5570715;31;33281;-69
2023/03/21 10:56:27;;;;;;;;;;;;;;;16.89;49.85;100341.50;5590034;31;34566;-70
2023/03/21 10:59:43;;;;;;;;;;;;;;;16.64;50.16;100333.31;5590082;31;34871;-69
2023/03/21 11:02:50;;;;;;;;;;;;;;;16.64;50.58;100330.62;5589903;31;34227;-70
2023/03/21 11:06:00;;;;;;;;;;;;;;;18.85;44.76;100322.53;5563314;31;33214;-71
2023/03/21 11:09:08;;;;;;;;;;;;;;;21.64;38.83;100314.09;5556830;31;33395;-69
2023/03/21 11:12:14;;;;;;;;;;;;;;;23.05;35.06;100320.19;5589885;31;35188;-72
2023/03/21 11:15:36;;;;;;;;;;;;;;;22.87;35.20;100322.13;5563572;31;35160;-70
2023/03/21 11:18:43;;;;;;;;;;;;;;;23.44;34.21;100308.22;5576409;31;35082;-70
2023/03/21 11:21:47;;;;;;;;;;;;;;;24.32;32.90;100306.13;5563042;31;35298;-70
2023/03/21 11:24:53;;;;;;;;;;;;;;;24.41;32.83;100308.09;5575993;31;34485;-70
2023/03/21 11:27:58;;;;;;;;;;;;;;;24.89;31.86;100307.06;5589727;31;34635;-69
2023/03/21 11:31:03;;;;;;;;;;;;;;;25.35;31.15;100297.25;5589803;31;34701;-70
2023/03/21 11:34:08;;;;;;;;;;;;;;;25.02;30.78;100289.50;5589748;31;34640;-70
2023/03/21 11:37:25;;;;;;;;;;;;;;;26.06;29.61;100299.28;5576070;31;34605;-70
2023/03/21 11:40:31;;;;;;;;;;;;;;;25.65;30.27;100284.84;5589435;31;34679;-70
2023/03/21 11:43:37;;;;;;;;;;;;;;;23.33;32.95;100285.63;5590017;31;35163;-70
2023/03/21 11:46:41;;;;;;;;;;;;;;;24.55;31.99;100282.16;5590078;31;35078;-70
2023/03/21 11:49:45;;;;;;;;;;;;;;;24.03;31.60;100283.91;5575860;31;35633;-70
2023/03/21 11:52:53;;;;;;;;;;;;;;;23.29;32.35;100273.66;5589469;31;34578;-70
2023/03/21 11:56:15;;;;;;;;;;;;;;;20.57;37.23;100267.94;5589466;31;34901;-69
2023/03/21 11:59:28;;;;;;;;;;;;;;;19.15;39.34;100266.16;5589650;31;35143;-69
2023/03/21 12:02:58;;;;;;;;;;;;;;;18.18;42.64;100262.41;5575424;31;33775;-69
2023/03/21 12:06:04;;;;;;;;;;;;;;;19.87;37.72;100258.94;5575737;31;34728;-69
2023/03/21 12:09:28;;;;;;;;;;;;;;;18.40;40.10;100264.66;5589481;31;34489;-69
2023/03/21 12:12:33;;;;;;;;;;;;;;;18.46;40.76;100269.16;5525345;32;914048;-69
2023/03/21 12:15:41;;;;;;;;;;;;;;;17.95;42.92;100262.19;5584534;31;34452;-68
2023/03/21 12:18:59;;;;;;;;;;;;;;;19.91;39.98;100254.72;5575047;31;35017;-69
2023/03/21 12:22:20;;;;;;;;;;;;;;;22.91;34.74;100261.03;5575933;31;34897;-70
2023/03/21 12:25:36;;;;;;;;;;;;;;;25.81;29.28;100256.59;5588184;31;33771;-69
2023/03/21 12:28:58;;;;;;;;;;;;;;;22.39;33.41;100255.16;5574870;31;35112;-69
2023/03/21 12:32:05;;;;;;;;;;;;;;;21.40;35.92;100253.19;5575955;31;34846;-69
2023/03/21 12:35:23;;;;;;;;;;;;;;;23.60;32.99;100247.78;5575272;31;34168;-71
2023/03/21 12:38:47;;;;;;;;;;;;;;;25.21;30.51;100249.12;5589270;31;34560;-71
2023/03/21 12:41:50;;;;;;;;;;;;;;;26.84;28.55;100243.41;5575476;31;35161;-72
2023/03/21 12:45:15;;;;;;;;;;;;;;;27.49;27.09;100225.97;5588878;31;35144;-72
2023/03/21 12:48:28;;;;;;;;;;;;;;;28.90;25.04;100233.94;5575172;31;35128;-72
2023/03/21 12:51:36;;;;;;;;;;;;;;;28.07;25.34;100207.78;5582275;31;34441;-71
2023/03/21 12:54:44;;;;;;;;;;;;;;;26.86;25.85;100208.59;5561908;31;34534;-71
2023/03/21 12:57:53;;;;;;;;;;;;;;;22.69;32.05;100210.69;5588714;31;34063;-70
2023/03/21 13:01:01;;;;;;;;;;;;;;;20.98;35.06;100209.44;5575325;31;35281;-70
2023/03/21 13:04:08;;;;;;;;;;;;;;;19.34;38.44;100213.97;5588511;31;35056;-71
2023/03/21 13:07:16;;;;;;;;;;;;;;;18.64;39.45;100208.22;5575172;31;35101;-70
2023/03/21 13:10:20;;;;;;;;;;;;;;;18.01;40.60;100204.13;5588302;31;34443;-70
2023/03/21 13:13:30;;;;;;;;;;;;;;;17.91;40.54;100196.53;5574781;31;35235;-71
2023/03/21 13:16:51;;;;;;;;;;;;;;;17.61;39.74;100207.13;5575816;31;35126;-70
2023/03/21 13:20:00;;;;;;;;;;;;;;;17.53;39.50;100195.78;5574575;31;33166;-70
2023/03/21 13:23:07;;;;;;;;;;;;;;;17.43;39.39;100182.84;5574676;31;34433;-70
2023/03/21 13:26:11;;;;;;;;;;;;;;;18.73;37.84;100183.75;5588309;31;34448;-70
2023/03/21 13:29:32;;;;;;;;;;;;;;;20.70;34.55;100183.28;5588328;31;34494;-70
2023/03/21 13:32:39;;;;;;;;;;;;;;;24.37;29.66;100193.09;5563815;31;33059;-71
2023/03/21 13:35:44;;;;;;;;;;;;;;;22.47;30.78;100186.31;5576472;31;34525;-71
2023/03/21 13:38:52;;;;;;;;;;;;;;;20.02;33.81;100177.72;5576961;31;34625;-70
2023/03/21 13:42:01;;;;;;;;;;;;;;;22.52;30.63;100186.41;5591172;31;34539;-69
2023/03/21 13:45:09;;;;;;;;;;;;;;;23.39;29.24;100176.31;5564276;31;34680;-70
2023/03/21 13:48:28;;;;;;;;;;;;;;;22.85;29.86;100190.91;5577208;31;34317;-70
2023/03/21 13:51:41;;;;;;;;;;;;;;;26.08;26.28;100189.19;5584396;31;34995;-70
2023/03/21 13:54:53;;;;;;;;;;;;;;;26.12;25.82;100171.22;5576999;31;34626;-70
2023/03/21 13:57:58;;;;;;;;;;;;;;;25.79;26.67;100167.19;5576712;31;34520;-69
2023/03/21 14:01:12;;;;;;;;;;;;;;;22.36;31.31;100177.28;5564001;31;34241;-70
2023/03/21 14:04:19;;;;;;;;;;;;;;;20.67;34.51;100160.31;5590548;31;34323;-68
2023/03/21 14:07:33;;;;;;;;;;;;;;;22.89;31.33;100168.53;5590573;31;35414;-68
2023/03/21 14:10:46;;;;;;;;;;;;;;;24.20;29.08;100171.59;5590460;31;35771;-69
2023/03/21 14:13:52;;;;;;;;;;;;;;;23.54;28.85;100164.03;5576591;31;34640;-69
2023/03/21 14:17:02;;;;;;;;;;;;;;;24.37;27.62;100159.75;5590296;31;35043;-70
2023/03/21 14:20:19;;;;;;;;;;;;;;;25.83;25.96;100156.59;5576894;31;34132;-69
2023/03/21 14:23:26;;;;;;;;;;;;;;;26.59;24.44;100145.53;5576527;31;34162;-69
2023/03/21 14:26:33;;;;;;;;;;;;;;;24.63;26.62;100151.47;5576738;31;34658;-69
2023/03/21 14:29:38;;;;;;;;;;;;;;;;;;5590375;31;33655;-69
2023/03/21 14:32:42;;;;;;;;;;;;;;;25.04;26.33;100136.16;5590156;31;34779;-70
2023/03/21 14:35:49;;;;;;;;;;;;;;;24.97;26.91;100132.88;5576647;31;35074;-69
2023/03/21 14:39:16;;;;;;;;;;;;;;;23.40;28.75;100123.00;5590079;31;34511;-68
2023/03/21 14:42:24;;;;;;;;;;;;;;;23.25;29.55;100126.38;5568002;31;35197;-68
2023/03/21 14:45:31;;;;;;;;;;;;;;;22.23;31.70;100137.09;5589987;31;35193;-69
2023/03/21 14:48:36;;;;;;;;;;;;;;;21.28;33.37;100131.00;5575960;31;34377;-69
2023/03/21 14:51:45;;;;;;;;;;;;;;;19.55;36.16;100121.16;5576320;31;35287;-69
2023/03/21 14:54:52;;;;;;;;;;;;;;;18.22;38.72;100126.66;5576040;31;33867;-68
2023/03/21 14:57:55;;;;;;;;;;;;;;;17.69;39.72;100117.50;5589892;31;34746;-69
2023/03/21 15:01:01;;;;;;;;;;;;;;;17.41;40.24;100123.28;5589673;31;34984;-68
2023/03/21 15:04:05;;;;;;;;;;;;;;;17.34;40.41;100122.50;5562899;31;34560;-68
2023/03/21 15:07:22;;;;;;;;;;;;;;;17.17;40.52;100118.72;5575133;31;33758;-68
2023/03/21 15:10:29;;;;;;;;;;;;;;;17.03;40.10;100119.84;5576288;31;35090;-68
2023/03/21 15:13:53;;;;;;;;;;;;;;;16.94;39.78;100117.41;5589685;31;34143;-68
2023/03/21 15:17:01;;;;;;;;;;;;;;;16.95;40.20;100113.69;5562363;31;33700;-68
2023/03/21 15:20:13;;;;;;;;;;;;;;;16.65;42.23;100122.53;5574941;31;35768;-68
2023/03/21 15:23:26;;;;;;;;;;;;;;;16.40;42.98;100109.81;5575766;31;34623;-68
2023/03/21 15:26:30;;;;;;;;;;;;;;;16.35;43.91;100116.84;5575742;31;34388;-68
2023/03/21 15:29:36;;;;;;;;;;;;;;;16.17;44.93;100097.97;5575637;31;34477;-67
2023/03/21 15:32:41;;;;;;;;;;;;;;;16.10;45.70;100108.69;5589256;31;34439;-68
2023/03/21 15:35:52;;;;;;;;;;;;;;;15.91;46.54;100101.53;5588926;31;34520;-68
2023/03/21 15:39:03;;;;;;;;;;;;;;;15.90;46.93;100111.41;5589019;31;35120;-69
2023/03/21 15:42:25;;;;;;;;;;;;;;;15.87;47.28;100098.47;5588767;31;35167;-68
2023/03/21 15:45:29;;;;;;;;;;;;;;;15.73;47.35;100110.22;5588947;31;35016;-68
2023/03/21 15:48:35;;;;;;;;;;;;;;;15.64;47.58;100114.91;5588752;31;35294;-68
2023/03/21 15:51:42;;;;;;;;;;;;;;;15.57;48.03;100103.44;5581920;31;34423;-68
2023/03/21 15:55:01;;;;;;;;;;;;;;;15.51;48.27;100103.41;5588724;31;34553;-68
2023/03/21 15:58:12;;;;;;;;;;;;;;;15.47;47.67;100104.84;5575528;31;35111;-68
2023/03/21 16:01:18;;;;;;;;;;;;;;;15.47;47.68;100102.16;5575602;31;34896;-68
2023/03/21 16:04:25;;;;;;;;;;;;;;;15.49;47.75;100116.94;5588883;31;35148;-68
2023/03/21 16:07:32;;;;;;;;;;;;;;;15.41;48.00;100097.63;5575568;31;34989;-68
2023/03/21 16:10:38;;;;;;;;;;;;;;;15.40;47.88;100109.34;5589059;31;34431;-68
2023/03/21 16:13:46;;;;;;;;;;;;;;;15.36;47.82;100108.94;5575681;31;34939;-69